Lafayette, TN (37083)

9:26 PM CDT on July 26, 2016 (GMT -0500)
KTNLAFAY2 | | Change Station

Elev 922 ft 36.57 °N, 86.06 °W | Updated 16 seconds ago

Clear
Clear
78.5 °F
Feels Like 81 °F
N
0.4
Wind Variable Wind from SSW
Gusts 0.4 mph

Today
High -- | Low -- °F
--% Chance of Precip.
Yesterday
High -- | Low -- °F
Precip. -- in
Pressure 30.00 in
Visibility 10.0 miles
Clouds Clear
Heat Index 81 °F
Dew Point 73 °F
Humidity 84%
Rainfall 0.00 in
Snow Depth Not available.
5:46 AM 7:54 PM
Waning Gibbous, 48% visible
METAR KGLW 270215Z AUTO 00000KT 10SM CLR 27/25 A3000 RMK AO2 T02690250 PWINO
Pressure 30.00 in
Visibility 10.0 miles
Clouds Clear
Heat Index 81 °F
Dew Point 73 °F
Humidity 84%
Rainfall 0.00 in
Snow Depth Not available.
5:46 AM 7:54 PM
Waning Gibbous, 48% visible
METAR KGLW 270215Z AUTO 00000KT 10SM CLR 27/25 A3000 RMK AO2 T02690250 PWINO

10-Day Weather Forecast

Almanac

Astronomy

Jul. 26, 2016 Rise Set
Actual Time
Civil Twilight
Nautical Twilight
Astronomical Twilight
Moon
Length of Visible Light
Length of Day
Tomorrow will be .
, % of the Moon is Illuminated

Today's Extremes

State Highs State Lows

Community

WunderPhotos

Upload Photos

1,927,777 photos uploaded!

WunderBlog® & News

Nearby

Air Quality

  Air Quality AQ Index Pollutant
Not available.

Snow Depth

Station Depth Elevation

Earthquake Activity

City Distance Mag. Time & Date
Minimum magnitude displayed is 2.5.

Coastal Water Temperatures

Place Temperature

Stations

Nearby Weather Stations

Station Location Temp. Windchill Dew Point Humidity Wind Precip. Elev Updated Type
                   

Watches & Warnings

There are currently no watches in effect.